createdAt,value
2023-01-27T00:01:25.399Z,99316.34
2023-01-27T00:06:28.745Z,99298.91
2023-01-27T00:11:51.014Z,99293.50
2023-01-27T00:16:54.461Z,99311.28
2023-01-27T00:22:15.213Z,99304.75
2023-01-27T00:27:20.075Z,99290.09
2023-01-27T00:32:40.852Z,99300.03
2023-01-27T00:37:44.473Z,99288.06
2023-01-27T00:42:51.180Z,99283.22
2023-01-27T00:47:54.697Z,99279.22
2023-01-27T00:52:59.200Z,99294.31
2023-01-27T00:58:04.042Z,99277.69
2023-01-27T01:03:07.148Z,99280.75
2023-01-27T01:08:10.506Z,99277.78
2023-01-27T01:13:15.377Z,99286.81
2023-01-27T01:18:19.000Z,99281.44
2023-01-27T01:23:22.486Z,99279.88
2023-01-27T01:28:27.894Z,99274.16
2023-01-27T01:33:31.273Z,99274.09
2023-01-27T01:38:34.726Z,99276.84
2023-01-27T01:43:39.748Z,99281.31
2023-01-27T01:48:47.581Z,99280.06
2023-01-27T01:53:55.094Z,99262.50
2023-01-27T01:59:05.270Z,99258.94
2023-01-27T02:04:14.406Z,99254.75
2023-01-27T02:09:19.053Z,99253.44
2023-01-27T02:14:23.905Z,99256.09
2023-01-27T02:19:33.345Z,99258.00
2023-01-27T02:24:45.347Z,99258.91
2023-01-27T02:29:50.076Z,99255.28
2023-01-27T02:34:54.995Z,99256.16
2023-01-27T02:39:59.564Z,99261.41
2023-01-27T02:45:04.981Z,99249.09
2023-01-27T02:50:09.432Z,99243.94
2023-01-27T02:55:13.194Z,99250.06
2023-01-27T03:00:19.085Z,99248.97
2023-01-27T03:05:22.493Z,99238.38
2023-01-27T03:10:26.009Z,99242.44
2023-01-27T03:15:59.112Z,99252.56
2023-01-27T03:21:04.046Z,99245.72
2023-01-27T03:26:08.214Z,99249.00
2023-01-27T03:31:19.726Z,99253.13
2023-01-27T03:36:41.059Z,99257.19
2023-01-27T03:42:01.561Z,99257.53
2023-01-27T03:47:06.494Z,99254.38
2023-01-27T03:52:09.925Z,99260.09
2023-01-27T03:57:13.195Z,99259.97
2023-01-27T04:02:35.832Z,99264.72
2023-01-27T04:07:39.458Z,99269.38
2023-01-27T04:12:42.863Z,99268.38
2023-01-27T04:17:47.703Z,99269.00
2023-01-27T04:22:50.852Z,99272.75
2023-01-27T04:27:54.303Z,99280.34
2023-01-27T04:33:02.896Z,99287.69
2023-01-27T04:38:06.524Z,99283.53
2023-01-27T04:43:14.681Z,99281.13
2023-01-27T04:48:19.719Z,99286.91
2023-01-27T04:53:23.207Z,99293.97
2023-01-27T04:58:26.721Z,99294.13
2023-01-27T05:03:31.467Z,99296.81
2023-01-27T05:08:34.661Z,99291.44
2023-01-27T05:13:38.222Z,99287.50
2023-01-27T05:18:44.046Z,99289.88
2023-01-27T05:23:47.621Z,99301.16
2023-01-27T05:28:52.786Z,99316.03
2023-01-27T05:33:59.937Z,99314.84
2023-01-27T05:39:03.524Z,99315.25
2023-01-27T05:44:07.378Z,99316.41
2023-01-27T05:49:12.437Z,99318.78
2023-01-27T05:54:15.939Z,99312.25
2023-01-27T05:59:19.391Z,99324.50
2023-01-27T06:04:26.449Z,99327.44
2023-01-27T06:09:29.810Z,99325.59
2023-01-27T06:14:33.171Z,99323.41
2023-01-27T06:19:38.277Z,99323.03
2023-01-27T06:24:44.740Z,99324.34
2023-01-27T06:29:48.330Z,99325.31
2023-01-27T06:34:56.117Z,99333.59
2023-01-27T06:39:59.428Z,99324.06
2023-01-27T06:45:03.027Z,99335.00
2023-01-27T06:50:09.941Z,99334.09
2023-01-27T06:55:19.606Z,99337.63
2023-01-27T07:00:23.561Z,99345.59
2023-01-27T07:05:28.543Z,99349.97
2023-01-27T07:10:32.177Z,99348.16
2023-01-27T07:15:36.150Z,99361.56
2023-01-27T07:20:41.552Z,99346.66
2023-01-27T07:25:45.444Z,99357.38
2023-01-27T07:30:49.055Z,99363.09
2023-01-27T07:35:55.755Z,99363.25
2023-01-27T07:40:59.517Z,99385.81
2023-01-27T07:46:05.883Z,99379.88
2023-01-27T07:51:15.077Z,99371.28
2023-01-27T07:56:22.473Z,99378.66
2023-01-27T08:01:26.151Z,99364.44
2023-01-27T08:06:31.261Z,99364.38
2023-01-27T08:11:35.094Z,99388.22
2023-01-27T08:16:40.536Z,99383.47
2023-01-27T08:21:45.589Z,99383.06
2023-01-27T08:26:49.270Z,99391.25
2023-01-27T08:31:52.968Z,99390.28
2023-01-27T08:36:58.006Z,99387.16
2023-01-27T08:42:02.117Z,99381.56
2023-01-27T08:47:05.790Z,99374.06
2023-01-27T08:52:10.893Z,99388.91
2023-01-27T08:57:14.472Z,99381.44
2023-01-27T09:02:18.040Z,99377.19
2023-01-27T09:07:27.384Z,99391.91
2023-01-27T09:12:30.906Z,99393.47
2023-01-27T09:17:34.511Z,99398.03
2023-01-27T09:22:40.569Z,99394.78
2023-01-27T09:27:44.153Z,99397.78
2023-01-27T09:32:47.661Z,99399.31
2023-01-27T09:37:56.401Z,99396.22
2023-01-27T09:43:16.707Z,99394.25
2023-01-27T09:48:46.782Z,99407.34
2023-01-27T09:54:16.784Z,99387.19
2023-01-27T09:59:35.191Z,99382.66
2023-01-27T10:05:03.325Z,99394.47
2023-01-27T10:10:26.148Z,99394.88
2023-01-27T10:15:45.165Z,99385.38
2023-01-27T10:21:01.698Z,99387.38
2023-01-27T10:26:20.381Z,99394.41
2023-01-27T10:31:28.293Z,99393.00
2023-01-27T10:36:41.851Z,99395.78
2023-01-27T10:41:56.028Z,99395.41
2023-01-27T10:47:07.624Z,99389.66
2023-01-27T10:52:17.497Z,99396.97
2023-01-27T10:57:27.531Z,99404.56
2023-01-27T11:02:36.144Z,99405.28
2023-01-27T11:07:49.002Z,99414.91
2023-01-27T11:12:58.015Z,99406.44
2023-01-27T11:18:05.555Z,99414.91
2023-01-27T11:23:18.699Z,99417.00
2023-01-27T11:28:32.967Z,99417.38
2023-01-27T11:33:48.971Z,99420.81
2023-01-27T11:38:52.749Z,99417.47
2023-01-27T11:43:57.633Z,99420.47
2023-01-27T11:49:00.986Z,99414.91
2023-01-27T11:54:11.694Z,99419.91
2023-01-27T11:59:20.978Z,99420.47
2023-01-27T12:04:45.573Z,99416.00
2023-01-27T12:09:49.392Z,99422.31
2023-01-27T12:14:56.077Z,99430.25
2023-01-27T12:20:03.981Z,99430.91
2023-01-27T12:25:15.797Z,99396.31
2023-01-27T12:30:24.074Z,99425.16
2023-01-27T12:35:31.056Z,99428.78
2023-01-27T12:40:36.065Z,99431.41
2023-01-27T12:45:43.509Z,99429.78
2023-01-27T12:50:58.260Z,99460.25
2023-01-27T12:56:06.175Z,99454.63
2023-01-27T13:01:23.753Z,99451.28
2023-01-27T13:06:35.541Z,99460.34
2023-01-27T13:11:42.190Z,99470.31
2023-01-27T13:16:54.187Z,99475.09
2023-01-27T13:21:58.253Z,99474.88
2023-01-27T13:27:05.084Z,99483.53
2023-01-27T13:32:20.695Z,99475.06
2023-01-27T13:37:33.321Z,99483.66
2023-01-27T13:42:43.545Z,99497.31
2023-01-27T13:47:54.991Z,99502.31
2023-01-27T13:53:00.568Z,99500.84
2023-01-27T13:58:11.577Z,99506.06
2023-01-27T14:03:36.903Z,99503.28
2023-01-27T14:08:50.442Z,99507.50
2023-01-27T14:14:23.619Z,99504.25
2023-01-27T14:19:39.086Z,99519.41
2023-01-27T14:24:51.168Z,99518.34
2023-01-27T14:30:03.148Z,99504.66
2023-01-27T14:35:30.500Z,99518.41
2023-01-27T14:40:39.990Z,99521.50
2023-01-27T14:45:49.313Z,99526.47
2023-01-27T14:51:08.937Z,99530.25
2023-01-27T14:56:22.005Z,99552.03
2023-01-27T15:01:34.667Z,99560.19
2023-01-27T15:06:47.761Z,99547.97
2023-01-27T15:12:09.889Z,99547.22
2023-01-27T15:17:28.529Z,99553.56
2023-01-27T15:22:45.163Z,99540.78
2023-01-27T15:27:49.811Z,99549.91
2023-01-27T15:32:53.553Z,99560.78
2023-01-27T15:38:01.937Z,99561.00
2023-01-27T15:43:06.658Z,99573.19
2023-01-27T15:48:16.433Z,99556.19
2023-01-27T15:53:29.680Z,99570.75
2023-01-27T15:58:36.386Z,99582.56
2023-01-27T16:03:44.154Z,99578.88
2023-01-27T16:08:53.524Z,99582.16
2023-01-27T16:14:34.199Z,99582.06
2023-01-27T16:19:44.691Z,99590.13
2023-01-27T16:24:56.481Z,99591.78
2023-01-27T16:30:08.068Z,99583.06
2023-01-27T16:35:20.803Z,99589.50
2023-01-27T16:40:26.573Z,99598.63
2023-01-27T16:45:35.079Z,99601.06
2023-01-27T16:50:40.479Z,99609.66
2023-01-27T16:55:56.376Z,99601.81
2023-01-27T17:01:01.638Z,99600.13
2023-01-27T17:06:09.044Z,99595.19
2023-01-27T17:11:19.876Z,99600.56
2023-01-27T17:16:27.383Z,99610.75
2023-01-27T17:21:34.958Z,99613.69
2023-01-27T17:26:40.112Z,99618.38
2023-01-27T17:31:44.318Z,99617.84
2023-01-27T17:37:07.822Z,99622.88
2023-01-27T17:42:18.214Z,99623.50
2023-01-27T17:47:23.422Z,99620.53
2023-01-27T17:52:28.475Z,99633.56
2023-01-27T17:57:36.052Z,99633.06
2023-01-27T18:03:00.060Z,99642.50
2023-01-27T18:08:05.540Z,99646.31
2023-01-27T18:13:35.325Z,99638.19
2023-01-27T18:18:39.120Z,99636.25
2023-01-27T18:23:46.811Z,99635.56
2023-01-27T18:28:54.722Z,99645.28
2023-01-27T18:34:00.142Z,99632.81
2023-01-27T18:39:05.164Z,99650.34
2023-01-27T18:44:12.328Z,99649.47
2023-01-27T18:49:15.946Z,99656.09
2023-01-27T18:54:19.384Z,99662.97
2023-01-27T18:59:24.548Z,99658.03
2023-01-27T19:04:28.759Z,99659.66
2023-01-27T19:09:32.396Z,99674.88
2023-01-27T19:14:37.152Z,99661.09
2023-01-27T19:19:40.741Z,99684.50
2023-01-27T19:24:45.924Z,99674.53
2023-01-27T19:29:51.134Z,99685.69
2023-01-27T19:34:54.579Z,99683.94
2023-01-27T19:39:59.624Z,99683.31
2023-01-27T19:45:04.644Z,99685.00
2023-01-27T19:50:13.620Z,99695.19
2023-01-27T19:55:17.650Z,99690.94
2023-01-27T20:00:28.400Z,99700.66
2023-01-27T20:05:35.525Z,99698.97
2023-01-27T20:10:39.201Z,99706.00
2023-01-27T20:15:44.581Z,99704.53
2023-01-27T20:20:48.311Z,99711.31
2023-01-27T20:25:51.793Z,99703.50
2023-01-27T20:30:56.788Z,99716.44
2023-01-27T20:36:00.304Z,99706.94
2023-01-27T20:41:08.219Z,99704.78
2023-01-27T20:46:15.374Z,99706.63
2023-01-27T20:51:19.125Z,99710.84
2023-01-27T20:56:24.145Z,99701.22
2023-01-27T21:01:29.151Z,99712.47
2023-01-27T21:06:32.865Z,99694.75
2023-01-27T21:11:36.445Z,99721.56
2023-01-27T21:16:41.276Z,99719.00
2023-01-27T21:21:45.285Z,99723.66
2023-01-27T21:26:50.359Z,99720.75
2023-01-27T21:31:57.196Z,99724.22
2023-01-27T21:37:00.887Z,99731.47
2023-01-27T21:42:36.281Z,99735.91
2023-01-27T21:47:40.995Z,99735.28
2023-01-27T21:52:46.089Z,99744.41
2023-01-27T21:57:51.237Z,99743.19
2023-01-27T22:02:56.845Z,99746.31
2023-01-27T22:08:02.050Z,99745.63
2023-01-27T22:13:05.851Z,99750.56
2023-01-27T22:18:10.827Z,99751.31
2023-01-27T22:23:14.150Z,99751.25
2023-01-27T22:28:18.086Z,99756.22
2023-01-27T22:33:22.790Z,99757.94
2023-01-27T22:38:26.240Z,99764.91
2023-01-27T22:43:29.687Z,99775.16
2023-01-27T22:48:34.612Z,99784.94
2023-01-27T22:53:37.846Z,99805.13
2023-01-27T22:58:41.452Z,99791.16
2023-01-27T23:03:46.440Z,99796.38
2023-01-27T23:08:50.037Z,99798.59
2023-01-27T23:13:53.370Z,99800.84
2023-01-27T23:18:58.379Z,99807.94
2023-01-27T23:24:01.962Z,99807.38
2023-01-27T23:29:16.250Z,99814.50
2023-01-27T23:34:28.901Z,99813.25
2023-01-27T23:39:32.152Z,99829.88
2023-01-27T23:44:35.569Z,99823.47
2023-01-27T23:49:40.535Z,99828.50
2023-01-27T23:54:43.993Z,99822.59
2023-01-27T23:59:47.661Z,99830.56
